createdAt,value
2019-01-16T00:00:30.925Z,-5.32
2019-01-16T00:03:20.516Z,-5.42
2019-01-16T00:06:06.030Z,-5.44
2019-01-16T00:08:51.524Z,-5.56
2019-01-16T00:11:27.147Z,-5.56
2019-01-16T00:14:16.810Z,-5.57
2019-01-16T00:16:58.460Z,-5.61
2019-01-16T00:20:00.059Z,-5.61
2019-01-16T00:22:52.588Z,-5.62
2019-01-16T00:25:33.848Z,-5.65
2019-01-16T00:28:35.894Z,-5.68
2019-01-16T00:31:31.368Z,-5.67
2019-01-16T00:34:08.628Z,-5.68
2019-01-16T00:36:55.307Z,-5.67
2019-01-16T00:39:44.781Z,-5.67
2019-01-16T00:42:34.377Z,-5.66
2019-01-16T00:45:33.333Z,-5.66
2019-01-16T00:48:24.589Z,-5.67
2019-01-16T00:51:09.962Z,-5.69
2019-01-16T00:53:59.609Z,-5.71
2019-01-16T00:56:41.031Z,-5.72
2019-01-16T00:59:42.942Z,-5.74
2019-01-16T01:02:35.747Z,-5.77
2019-01-16T01:05:15.204Z,-5.78
2019-01-16T01:08:08.088Z,-5.86
2019-01-16T01:10:50.918Z,-5.86
2019-01-16T01:13:43.391Z,-5.85
2019-01-16T01:16:28.561Z,-5.87
2019-01-16T01:19:18.347Z,-5.89
2019-01-16T01:22:05.025Z,-5.95
2019-01-16T01:25:03.874Z,-5.95
2019-01-16T01:27:43.032Z,-6.00
2019-01-16T01:30:22.846Z,-6.00
2019-01-16T01:33:24.874Z,-6.01
2019-01-16T01:36:10.170Z,-6.07
2019-01-16T01:38:47.484Z,-6.12
2019-01-16T01:41:34.161Z,-6.12
2019-01-16T01:44:19.492Z,-6.11
2019-01-16T01:46:57.894Z,-6.10
2019-01-16T01:49:43.440Z,-6.10
2019-01-16T01:52:33.038Z,-6.13
2019-01-16T01:55:22.716Z,-6.15
2019-01-16T01:58:12.065Z,-6.17
2019-01-16T02:00:57.299Z,-6.20
2019-01-16T02:03:59.213Z,-6.22
2019-01-16T02:06:54.697Z,-6.23
2019-01-16T02:09:32.560Z,-6.26
2019-01-16T02:12:37.391Z,-6.26
2019-01-16T02:15:41.231Z,-6.28
2019-01-16T02:18:30.912Z,-6.33
2019-01-16T02:21:27.050Z,-6.36
2019-01-16T02:24:12.668Z,-6.36
2019-01-16T02:27:11.583Z,-6.35
2019-01-16T02:29:59.116Z,-6.39
2019-01-16T02:32:48.682Z,-6.45
2019-01-16T02:35:50.258Z,-6.45
2019-01-16T02:38:39.208Z,-6.48
2019-01-16T02:41:25.896Z,-6.52
2019-01-16T02:44:11.321Z,-6.54
2019-01-16T02:47:04.236Z,-6.58
2019-01-16T02:49:44.945Z,-6.61
2019-01-16T02:52:30.474Z,-6.67
2019-01-16T02:55:20.096Z,-6.68
2019-01-16T02:58:15.683Z,-6.72
2019-01-16T03:01:17.479Z,-6.73
2019-01-16T03:04:02.647Z,-6.73
2019-01-16T03:06:52.257Z,-6.77
2019-01-16T03:09:31.261Z,-6.82
2019-01-16T03:12:13.449Z,-6.87
2019-01-16T03:15:02.987Z,-6.93
2019-01-16T03:17:49.675Z,-6.96
2019-01-16T03:20:54.861Z,-6.95
2019-01-16T03:23:53.551Z,-6.91
2019-01-16T03:26:42.886Z,-6.87
2019-01-16T03:29:35.249Z,-6.85
2019-01-16T03:32:17.508Z,-6.89
2019-01-16T03:35:02.864Z,-6.94
2019-01-16T03:37:58.628Z,-6.95
2019-01-16T03:40:43.891Z,-6.96
2019-01-16T03:43:17.051Z,-6.95
2019-01-16T03:45:57.755Z,-6.94
2019-01-16T03:48:44.484Z,-6.93
2019-01-16T03:51:46.217Z,-6.89
2019-01-16T03:54:38.717Z,-6.83
2019-01-16T03:57:33.433Z,-6.76
2019-01-16T04:00:25.012Z,-6.74
2019-01-16T04:03:11.693Z,-6.73
2019-01-16T04:06:10.373Z,-6.72
2019-01-16T04:08:55.519Z,-6.73
2019-01-16T04:11:36.404Z,-6.80
2019-01-16T04:14:22.381Z,-6.85
2019-01-16T04:17:21.053Z,-6.85
2019-01-16T04:20:25.781Z,-6.84
2019-01-16T04:23:15.094Z,-6.86
2019-01-16T04:26:07.430Z,-6.85
2019-01-16T04:28:54.111Z,-6.84
2019-01-16T04:31:43.997Z,-6.86
2019-01-16T04:34:39.621Z,-6.90
2019-01-16T04:37:38.229Z,-6.91
2019-01-16T04:40:31.049Z,-6.89
2019-01-16T04:43:16.294Z,-6.88
2019-01-16T04:46:12.082Z,-6.94
2019-01-16T04:48:57.194Z,-7.01
2019-01-16T04:51:53.070Z,-7.05
2019-01-16T04:54:57.819Z,-7.08
2019-01-16T04:57:36.794Z,-7.10
2019-01-16T05:00:36.598Z,-7.13
2019-01-16T05:03:29.095Z,-7.15
2019-01-16T05:06:31.085Z,-7.17
2019-01-16T05:09:20.772Z,-7.23
2019-01-16T05:12:10.216Z,-7.39
2019-01-16T05:14:55.509Z,-7.50
2019-01-16T05:17:48.312Z,-7.57
2019-01-16T05:20:44.040Z,-7.61
2019-01-16T05:23:33.692Z,-7.58
2019-01-16T05:26:29.516Z,-7.51
2019-01-16T05:29:15.256Z,-7.36
2019-01-16T05:32:04.901Z,-7.36
2019-01-16T05:35:03.560Z,-7.32
2019-01-16T05:37:49.891Z,-7.33
2019-01-16T05:40:39.209Z,-7.32
2019-01-16T05:43:25.916Z,-7.33
2019-01-16T05:46:18.288Z,-7.33
2019-01-16T05:49:05.192Z,-7.35
2019-01-16T05:51:46.964Z,-7.36
2019-01-16T05:54:45.479Z,-7.37
2019-01-16T05:57:41.059Z,-7.35
2019-01-16T06:00:29.995Z,-7.34
2019-01-16T06:03:15.911Z,-7.37
2019-01-16T06:06:05.521Z,-7.38
2019-01-16T06:08:52.236Z,-7.42
2019-01-16T06:11:38.907Z,-7.55
2019-01-16T06:14:34.539Z,-7.72
2019-01-16T06:17:18.697Z,-7.86
2019-01-16T06:20:04.127Z,-8.00
2019-01-16T06:22:53.895Z,-8.07
2019-01-16T06:25:40.586Z,-7.98
2019-01-16T06:28:27.260Z,-7.91
2019-01-16T06:31:15.920Z,-7.93
2019-01-16T06:34:05.340Z,-7.98
2019-01-16T06:36:52.053Z,-7.98
2019-01-16T06:39:35.337Z,-7.87
2019-01-16T06:42:07.905Z,-7.78
2019-01-16T06:44:57.229Z,-7.72
2019-01-16T06:47:49.903Z,-7.70
2019-01-16T06:50:45.534Z,-7.66
2019-01-16T06:53:44.149Z,-7.63
2019-01-16T06:56:29.420Z,-7.61
2019-01-16T06:59:05.774Z,-7.60
2019-01-16T07:01:46.654Z,-7.59
2019-01-16T07:04:41.953Z,-7.58
2019-01-16T07:07:22.629Z,-7.55
2019-01-16T07:10:21.258Z,-7.55
2019-01-16T07:13:14.695Z,-7.50
2019-01-16T07:16:07.448Z,-7.51
2019-01-16T07:18:52.816Z,-7.44
2019-01-16T07:21:57.767Z,-7.43
2019-01-16T07:24:44.501Z,-7.40
2019-01-16T07:27:31.184Z,-7.38
2019-01-16T07:30:20.768Z,-7.33
2019-01-16T07:33:10.228Z,-7.27
2019-01-16T07:36:15.003Z,-7.26
2019-01-16T07:39:13.024Z,-7.30
2019-01-16T07:42:02.424Z,-7.29
2019-01-16T07:44:47.623Z,-7.29
2019-01-16T07:47:29.060Z,-7.29
2019-01-16T07:50:17.136Z,-7.26
2019-01-16T07:53:10.573Z,-7.24
2019-01-16T07:55:55.932Z,-7.21
2019-01-16T07:58:37.023Z,-7.16
2019-01-16T08:01:10.002Z,-7.13
2019-01-16T08:04:05.733Z,-7.08
2019-01-16T08:06:51.035Z,-7.07
2019-01-16T08:09:42.379Z,-7.05
2019-01-16T08:12:28.400Z,-7.04
2019-01-16T08:15:13.864Z,-7.02
2019-01-16T08:18:06.599Z,-7.05
2019-01-16T08:20:51.696Z,-7.03
2019-01-16T08:23:37.160Z,-6.96
2019-01-16T08:26:36.102Z,-6.89
2019-01-16T08:29:29.110Z,-6.86
2019-01-16T08:32:14.504Z,-6.83
2019-01-16T08:34:59.899Z,-6.79
2019-01-16T08:37:45.584Z,-6.74
2019-01-16T08:40:32.239Z,-6.65
2019-01-16T08:43:10.122Z,-6.60
2019-01-16T08:45:56.825Z,-6.55
2019-01-16T08:48:58.549Z,-6.50
2019-01-16T08:51:54.109Z,-6.45
2019-01-16T08:54:45.931Z,-6.43
2019-01-16T08:57:32.033Z,-6.40
2019-01-16T09:00:24.475Z,-6.36
2019-01-16T09:03:29.660Z,-6.33
2019-01-16T09:06:19.441Z,-6.23
2019-01-16T09:09:04.257Z,-6.23
2019-01-16T09:11:45.952Z,-6.16
2019-01-16T09:14:40.340Z,-6.16
2019-01-16T09:17:36.377Z,-6.08
2019-01-16T09:20:17.144Z,-6.00
2019-01-16T09:23:02.745Z,-5.86
2019-01-16T09:25:49.064Z,-5.83
2019-01-16T09:28:41.713Z,-5.83
2019-01-16T09:31:29.301Z,-5.80
2019-01-16T09:34:11.401Z,-5.69
2019-01-16T09:36:58.077Z,-5.59
2019-01-16T09:39:43.715Z,-5.59
2019-01-16T09:42:30.382Z,-5.55
2019-01-16T09:45:15.918Z,-5.53
2019-01-16T09:48:09.856Z,-5.50
2019-01-16T09:50:56.526Z,-5.44
2019-01-16T09:53:41.617Z,-5.39
2019-01-16T09:56:27.061Z,-5.35
2019-01-16T09:59:05.644Z,-5.32
2019-01-16T10:02:01.189Z,-5.31
2019-01-16T10:04:47.960Z,-5.29
2019-01-16T10:07:54.242Z,-5.29
2019-01-16T10:10:41.646Z,-5.32
2019-01-16T10:13:34.088Z,-5.35
2019-01-16T10:16:15.083Z,-5.32
2019-01-16T10:19:07.939Z,-5.32
2019-01-16T10:21:57.908Z,-5.26
2019-01-16T10:24:43.433Z,-5.22
2019-01-16T10:27:32.980Z,-5.17
2019-01-16T10:30:18.131Z,-5.11
2019-01-16T10:33:10.960Z,-5.05
2019-01-16T10:36:03.622Z,-5.02
2019-01-16T10:38:49.140Z,-4.99
2019-01-16T10:41:47.891Z,-4.95
2019-01-16T10:44:34.560Z,-4.90
2019-01-16T10:47:19.713Z,-4.85
2019-01-16T10:50:18.504Z,-4.78
2019-01-16T10:53:05.212Z,-4.70
2019-01-16T10:55:46.291Z,-4.63
2019-01-16T10:58:28.089Z,-4.58
2019-01-16T11:01:33.147Z,-4.53
2019-01-16T11:04:16.404Z,-4.47
2019-01-16T11:07:18.371Z,-4.40
2019-01-16T11:10:09.947Z,-4.34
2019-01-16T11:12:56.616Z,-4.26
2019-01-16T11:15:52.419Z,-4.23
2019-01-16T11:18:37.630Z,-4.18
2019-01-16T11:21:23.226Z,-4.14
2019-01-16T11:24:22.053Z,-4.12
2019-01-16T11:27:04.745Z,-4.08
2019-01-16T11:30:03.498Z,-4.03
2019-01-16T11:32:50.179Z,-3.98
2019-01-16T11:35:36.867Z,-3.94
2019-01-16T11:38:29.774Z,-3.91
2019-01-16T11:41:05.755Z,-3.88
2019-01-16T11:43:49.306Z,-3.85
2019-01-16T11:46:25.250Z,-3.81
2019-01-16T11:49:14.796Z,-3.75
2019-01-16T11:52:13.814Z,-3.70
2019-01-16T11:54:58.881Z,-3.68
2019-01-16T11:57:48.619Z,-3.64
2019-01-16T12:00:35.387Z,-3.60
2019-01-16T12:03:12.273Z,-3.57
2019-01-16T12:05:57.476Z,-3.53
2019-01-16T12:08:35.760Z,-3.49
2019-01-16T12:11:14.475Z,-3.46
2019-01-16T12:13:59.695Z,-3.42
2019-01-16T12:16:52.497Z,-3.38
2019-01-16T12:19:41.972Z,-3.38
2019-01-16T12:22:26.646Z,-3.37
2019-01-16T12:25:11.928Z,-3.37
2019-01-16T12:28:07.704Z,-3.36
2019-01-16T12:30:50.292Z,-3.32
2019-01-16T12:33:39.883Z,-3.29
2019-01-16T12:36:26.661Z,-3.28
2019-01-16T12:39:13.389Z,-3.23
2019-01-16T12:42:12.030Z,-3.22
2019-01-16T12:44:53.531Z,-3.21
2019-01-16T12:47:36.390Z,-3.18
2019-01-16T12:50:14.552Z,-3.18
2019-01-16T12:53:03.108Z,-3.17
2019-01-16T12:55:49.433Z,-3.17
2019-01-16T12:58:34.721Z,-3.13
2019-01-16T13:01:15.757Z,-3.12
2019-01-16T13:04:06.576Z,-3.09
2019-01-16T13:07:05.450Z,-3.07
2019-01-16T13:09:52.116Z,-3.06
2019-01-16T13:12:37.410Z,-3.05
2019-01-16T13:15:24.767Z,-3.05
2019-01-16T13:18:10.425Z,-3.05
2019-01-16T13:21:06.152Z,-3.05
2019-01-16T13:23:44.177Z,-3.04
2019-01-16T13:26:30.834Z,-3.01
2019-01-16T13:29:16.134Z,-3.00
2019-01-16T13:32:01.607Z,-2.98
2019-01-16T13:34:44.322Z,-2.96
2019-01-16T13:37:33.934Z,-2.95
2019-01-16T13:40:23.487Z,-2.93
2019-01-16T13:43:22.008Z,-2.89
2019-01-16T13:46:07.532Z,-2.88
2019-01-16T13:49:00.316Z,-2.86
2019-01-16T13:51:52.871Z,-2.83
2019-01-16T13:54:38.701Z,-2.80
2019-01-16T13:57:24.119Z,-2.77
2019-01-16T14:00:09.569Z,-2.77
2019-01-16T14:02:55.029Z,-2.73
2019-01-16T14:05:32.954Z,-2.70
2019-01-16T14:08:18.308Z,-2.68
2019-01-16T14:11:14.019Z,-2.67
2019-01-16T14:14:00.674Z,-2.66
2019-01-16T14:17:02.933Z,-2.65
2019-01-16T14:19:58.488Z,-2.63
2019-01-16T14:22:43.850Z,-2.60
2019-01-16T14:25:39.538Z,-2.57
2019-01-16T14:28:32.105Z,-2.56
2019-01-16T14:31:26.558Z,-2.51
2019-01-16T14:34:11.928Z,-2.47
2019-01-16T14:37:07.532Z,-2.44
2019-01-16T14:39:56.860Z,-2.41
2019-01-16T14:42:46.384Z,-2.36
2019-01-16T14:45:45.041Z,-2.33
2019-01-16T14:48:40.839Z,-2.28
2019-01-16T14:51:36.370Z,-2.22
2019-01-16T14:54:19.147Z,-2.17
2019-01-16T14:57:00.815Z,-2.12
2019-01-16T14:59:49.901Z,-2.08
2019-01-16T15:02:30.054Z,-2.03
2019-01-16T15:05:34.856Z,-1.97
2019-01-16T15:08:20.697Z,-1.94
2019-01-16T15:11:22.589Z,-1.89
2019-01-16T15:14:10.070Z,-1.84
2019-01-16T15:17:02.838Z,-1.78
2019-01-16T15:19:54.343Z,-1.73
2019-01-16T15:22:32.162Z,-1.67
2019-01-16T15:25:34.305Z,-1.62
2019-01-16T15:28:20.218Z,-1.58
2019-01-16T15:31:09.581Z,-1.53
2019-01-16T15:34:11.227Z,-1.50
2019-01-16T15:36:52.204Z,-1.45
2019-01-16T15:39:38.877Z,-1.44
2019-01-16T15:42:26.080Z,-1.36
2019-01-16T15:45:05.560Z,-1.34
2019-01-16T15:48:01.472Z,-1.30
2019-01-16T15:51:03.195Z,-1.29
2019-01-16T15:53:55.525Z,-1.25
2019-01-16T15:56:42.226Z,-1.22
2019-01-16T15:59:34.993Z,-1.20
2019-01-16T16:02:20.555Z,-1.16
2019-01-16T16:05:11.366Z,-1.14
2019-01-16T16:07:52.482Z,-1.12
2019-01-16T16:10:54.521Z,-1.10
2019-01-16T16:13:34.799Z,-1.07
2019-01-16T16:16:14.921Z,-1.04
2019-01-16T16:19:00.403Z,-1.01
2019-01-16T16:21:46.054Z,-0.97
2019-01-16T16:24:44.968Z,-0.93
2019-01-16T16:27:34.437Z,-0.90
2019-01-16T16:30:33.461Z,-0.87
2019-01-16T16:33:25.966Z,-0.83
2019-01-16T16:36:11.262Z,-0.78
2019-01-16T16:39:00.047Z,-0.74
2019-01-16T16:41:49.584Z,-0.70
2019-01-16T16:44:38.879Z,-0.67
2019-01-16T16:47:17.619Z,-0.62
2019-01-16T16:50:10.204Z,-0.58
2019-01-16T16:52:55.699Z,-0.54
2019-01-16T16:55:51.386Z,-0.46
2019-01-16T16:58:36.633Z,-0.42
2019-01-16T17:01:19.442Z,-0.34
2019-01-16T17:03:55.918Z,-0.30
2019-01-16T17:06:42.594Z,-0.25
2019-01-16T17:09:31.972Z,-0.21
2019-01-16T17:12:24.613Z,-0.17
2019-01-16T17:15:26.579Z,-0.12
2019-01-16T17:18:19.064Z,-0.08
2019-01-16T17:21:04.654Z,-0.06
2019-01-16T17:24:09.811Z,-0.04
2019-01-16T17:27:05.272Z,-0.02
2019-01-16T17:29:51.924Z,-0.01
2019-01-16T17:32:30.117Z,0.03
2019-01-16T17:35:25.870Z,0.04
2019-01-16T17:38:14.082Z,0.06
2019-01-16T17:41:16.057Z,0.08
2019-01-16T17:44:01.419Z,0.10
2019-01-16T17:46:46.857Z,0.09
2019-01-16T17:49:28.603Z,0.11
2019-01-16T17:52:30.547Z,0.12
2019-01-16T17:55:25.932Z,0.13
2019-01-16T17:58:11.270Z,0.17
2019-01-16T18:01:01.012Z,0.16
2019-01-16T18:03:46.152Z,0.19
2019-01-16T18:06:31.633Z,0.20
2019-01-16T18:09:12.100Z,0.22
2019-01-16T18:12:07.163Z,0.23
2019-01-16T18:14:42.099Z,0.25
2019-01-16T18:17:28.769Z,0.26
2019-01-16T18:20:21.601Z,0.28
2019-01-16T18:23:20.574Z,0.30
2019-01-16T18:26:09.930Z,0.31
2019-01-16T18:28:50.597Z,0.32
2019-01-16T18:31:29.101Z,0.35
2019-01-16T18:34:28.092Z,0.37
2019-01-16T18:37:23.551Z,0.45
2019-01-16T18:39:57.739Z,0.52
2019-01-16T18:42:41.102Z,0.61
2019-01-16T18:45:43.674Z,0.67
2019-01-16T18:48:39.089Z,0.74
2019-01-16T18:51:25.785Z,0.81
2019-01-16T18:54:18.476Z,0.88
2019-01-16T18:57:07.880Z,0.95
2019-01-16T18:59:53.580Z,1.05
2019-01-16T19:02:49.171Z,1.12
2019-01-16T19:05:41.656Z,1.17
2019-01-16T19:08:31.455Z,1.24
2019-01-16T19:11:21.360Z,1.33
2019-01-16T19:14:06.115Z,1.35
2019-01-16T19:16:58.733Z,1.38
2019-01-16T19:19:34.785Z,1.38
2019-01-16T19:22:24.093Z,1.41
2019-01-16T19:25:10.761Z,1.44
2019-01-16T19:28:06.582Z,1.47
2019-01-16T19:30:52.040Z,1.50
2019-01-16T19:33:41.661Z,1.53
2019-01-16T19:36:22.334Z,1.55
2019-01-16T19:39:07.951Z,1.58
2019-01-16T19:42:00.540Z,1.61
2019-01-16T19:45:05.492Z,1.62
2019-01-16T19:47:52.159Z,1.66
2019-01-16T19:50:26.912Z,1.72
2019-01-16T19:53:19.715Z,1.74
2019-01-16T19:56:21.406Z,1.77
2019-01-16T19:59:00.161Z,1.82
2019-01-16T20:01:47.186Z,1.84
2019-01-16T20:04:42.707Z,1.86
2019-01-16T20:07:35.500Z,1.93
2019-01-16T20:10:14.569Z,1.98
2019-01-16T20:13:01.364Z,2.01
2019-01-16T20:15:47.624Z,2.02
2019-01-16T20:18:37.305Z,2.08
2019-01-16T20:21:20.434Z,2.13
2019-01-16T20:24:07.242Z,2.16
2019-01-16T20:26:53.916Z,2.17
2019-01-16T20:29:46.820Z,2.18
2019-01-16T20:32:32.274Z,2.20
2019-01-16T20:35:10.166Z,2.21
2019-01-16T20:37:56.132Z,2.21
2019-01-16T20:40:45.420Z,2.22
2019-01-16T20:43:32.093Z,2.23
2019-01-16T20:46:17.502Z,2.30
2019-01-16T20:48:53.656Z,2.35
2019-01-16T20:51:40.322Z,2.37
2019-01-16T20:54:26.992Z,2.36
2019-01-16T20:57:01.197Z,2.33
2019-01-16T20:59:56.774Z,2.29
2019-01-16T21:02:42.097Z,2.26
2019-01-16T21:05:27.014Z,2.20
2019-01-16T21:08:19.572Z,2.17
2019-01-16T21:11:15.153Z,2.16
2019-01-16T21:13:54.347Z,2.14
2019-01-16T21:16:41.019Z,2.15
2019-01-16T21:19:33.433Z,2.10
2019-01-16T21:22:32.173Z,2.14
2019-01-16T21:25:24.566Z,2.14
2019-01-16T21:28:16.901Z,2.14
2019-01-16T21:31:03.091Z,2.16
2019-01-16T21:33:48.631Z,2.16
2019-01-16T21:36:44.516Z,2.16
2019-01-16T21:39:25.558Z,2.17
2019-01-16T21:42:17.849Z,2.17
2019-01-16T21:45:03.788Z,2.15
2019-01-16T21:47:49.058Z,2.17
2019-01-16T21:50:34.523Z,2.14
2019-01-16T21:53:30.194Z,2.13
2019-01-16T21:56:24.781Z,2.11
2019-01-16T21:59:09.892Z,2.11
2019-01-16T22:01:56.561Z,2.11
2019-01-16T22:04:42.124Z,2.12
2019-01-16T22:07:27.488Z,2.13
2019-01-16T22:10:17.183Z,2.12
2019-01-16T22:13:09.316Z,2.11
2019-01-16T22:15:47.632Z,2.11
2019-01-16T22:18:43.413Z,2.12
2019-01-16T22:21:25.773Z,2.11
2019-01-16T22:24:09.512Z,2.12
2019-01-16T22:27:05.393Z,2.11
2019-01-16T22:29:50.826Z,2.09
2019-01-16T22:32:46.726Z,2.11
2019-01-16T22:35:33.383Z,2.09
2019-01-16T22:38:18.775Z,2.09
2019-01-16T22:41:11.877Z,2.10
2019-01-16T22:43:57.157Z,2.08
2019-01-16T22:46:43.929Z,2.06
2019-01-16T22:49:30.607Z,2.05
2019-01-16T22:52:35.676Z,2.03
2019-01-16T22:55:13.827Z,2.02
2019-01-16T22:58:15.704Z,2.01
2019-01-16T23:01:06.297Z,2.00
2019-01-16T23:03:52.931Z,1.97
2019-01-16T23:06:45.588Z,1.95
2019-01-16T23:09:38.088Z,1.95
2019-01-16T23:12:23.976Z,1.95
2019-01-16T23:15:01.268Z,1.96
2019-01-16T23:17:53.855Z,1.96
2019-01-16T23:20:40.716Z,1.96
2019-01-16T23:23:26.321Z,1.96
2019-01-16T23:26:10.655Z,1.99
2019-01-16T23:29:00.176Z,1.98
2019-01-16T23:31:51.961Z,1.98
2019-01-16T23:34:34.268Z,2.00
2019-01-16T23:37:38.971Z,2.00
2019-01-16T23:40:41.312Z,2.01
2019-01-16T23:43:27.478Z,2.02
2019-01-16T23:46:14.144Z,2.04
2019-01-16T23:49:00.820Z,2.07
2019-01-16T23:51:56.576Z,2.10
2019-01-16T23:54:39.598Z,2.14
2019-01-16T23:57:38.486Z,2.18
